Time;durP1;ratioP1;P1;durP2;ratioP2;P2;SDS_P1;SDS_P2;PMS_P1;PMS_P2;Temp;Humidity;BMP_temperature;BMP_pressure;BME280_temperature;BME280_humidity;BME280_pressure;Samples;Min_cycle;Max_cycle;Signal;HPM_P1;HPM_P2
2023/03/05 00:01:24;;;;;;;4.77;1.20;;;7.00;99.90;;;;;;4999968;28;20195;-67
2023/03/05 00:03:51;;;;;;;5.83;1.40;;;7.00;99.90;;;;;;4996638;28;20269;-61
2023/03/05 00:06:18;;;;;;;4.83;1.40;;;6.90;99.90;;;;;;4995963;28;20290;-66
2023/03/05 00:08:46;;;;;;;2.33;1.17;;;6.90;99.90;;;;;;4996792;28;20284;-65
2023/03/05 00:11:12;;;;;;;4.50;1.07;;;6.90;99.90;;;;;;4997295;28;20187;-67
2023/03/05 00:13:38;;;;;;;2.50;1.20;;;6.90;99.90;;;;;;4996255;28;20215;-67
2023/03/05 00:16:12;;;;;;;4.53;1.50;;;6.90;99.90;;;;;;4996962;28;20204;-67
2023/03/05 00:18:38;;;;;;;3.73;1.43;;;6.90;99.90;;;;;;4998554;28;20249;-66
2023/03/05 00:21:05;;;;;;;2.13;1.03;;;6.90;99.90;;;;;;4996372;28;20180;-67
2023/03/05 00:23:31;;;;;;;4.60;1.33;;;6.80;99.90;;;;;;4996442;28;20179;-66
2023/03/05 00:26:02;;;;;;;2.73;1.00;;;6.90;99.90;;;;;;4996704;28;20183;-63
2023/03/05 00:28:30;;;;;;;3.83;1.03;;;6.80;99.90;;;;;;4996516;28;20274;-66
2023/03/05 00:31:00;;;;;;;2.03;0.93;;;6.80;99.90;;;;;;5000094;28;20273;-66
2023/03/05 00:33:28;;;;;;;5.97;1.10;;;6.80;99.90;;;;;;5003496;28;20264;-66
2023/03/05 00:35:54;;;;;;;4.00;1.23;;;6.70;99.90;;;;;;4996082;28;20241;-64
2023/03/05 00:38:22;;;;;;;3.10;1.20;;;6.80;99.90;;;;;;4994803;28;20179;-66
2023/03/05 00:40:50;;;;;;;3.10;1.07;;;6.70;99.90;;;;;;4994135;28;20286;-66
2023/03/05 00:43:16;;;;;;;3.20;1.10;;;6.70;99.90;;;;;;4988363;28;20176;-66
2023/03/05 00:45:41;;;;;;;3.00;1.00;;;6.70;99.90;;;;;;4991327;28;20171;-66
2023/03/05 00:48:08;;;;;;;4.00;1.10;;;6.70;99.90;;;;;;4997580;28;20218;-63
2023/03/05 00:50:36;;;;;;;2.77;1.20;;;6.70;99.90;;;;;;4993768;28;20194;-66
2023/03/05 00:53:03;;;;;;;3.63;1.20;;;6.60;99.90;;;;;;5005154;28;20218;-63
2023/03/05 00:55:29;;;;;;;1.53;0.83;;;6.60;99.90;;;;;;4994248;28;20186;-66
2023/03/05 00:57:55;;;;;;;3.90;1.10;;;6.60;99.90;;;;;;4994926;28;20179;-65
2023/03/05 01:00:22;;;;;;;2.07;0.90;;;6.60;99.90;;;;;;4995878;28;20171;-66
2023/03/05 01:02:48;;;;;;;2.90;0.90;;;6.60;99.90;;;;;;4992327;28;20267;-65
2023/03/05 01:05:14;;;;;;;3.17;1.03;;;6.60;99.90;;;;;;4995444;28;20262;-67
2023/03/05 01:07:40;;;;;;;1.83;1.07;;;6.50;99.90;;;;;;4996001;28;20245;-66
2023/03/05 01:10:09;;;;;;;4.47;1.40;;;6.60;99.90;;;;;;5009538;28;20189;-66
2023/03/05 01:12:40;;;;;;;3.50;1.10;;;6.50;99.90;;;;;;4998414;28;20207;-66
2023/03/05 01:15:06;;;;;;;3.90;1.27;;;6.50;99.90;;;;;;4992329;28;20242;-64
2023/03/05 01:17:34;;;;;;;4.07;1.27;;;6.50;99.90;;;;;;4996034;28;20194;-66
2023/03/05 01:20:00;;;;;;;4.17;1.60;;;6.50;99.90;;;;;;4993909;28;20550;-62
2023/03/05 01:22:28;;;;;;;4.30;1.20;;;6.40;99.90;;;;;;4989855;28;20176;-66
2023/03/05 01:24:56;;;;;;;3.33;1.10;;;6.40;99.90;;;;;;4981751;28;20269;-66
2023/03/05 01:27:22;;;;;;;3.50;1.13;;;6.50;99.90;;;;;;4995126;28;20202;-66
2023/03/05 01:29:50;;;;;;;4.40;1.20;;;6.40;99.90;;;;;;4994861;28;20271;-66
2023/03/05 01:32:15;;;;;;;2.80;1.00;;;6.40;99.90;;;;;;4994600;28;20211;-66
2023/03/05 01:34:41;;;;;;;4.07;1.00;;;6.50;99.90;;;;;;4982400;28;20223;-64
2023/03/05 01:37:07;;;;;;;10.40;2.00;;;6.40;99.90;;;;;;5007772;28;20270;-65
2023/03/05 01:39:35;;;;;;;3.37;1.40;;;6.40;99.90;;;;;;4991810;28;20188;-66
2023/03/05 01:42:01;;;;;;;2.00;0.93;;;6.40;99.90;;;;;;4994517;28;20198;-65
2023/03/05 01:44:29;;;;;;;4.57;1.20;;;6.40;99.90;;;;;;4993710;28;20206;-66
2023/03/05 01:46:55;;;;;;;5.70;1.20;;;6.40;99.90;;;;;;4995037;28;20261;-64
2023/03/05 01:49:34;;;;;;;5.00;1.37;;;6.40;99.90;;;;;;4986865;28;20199;-66
2023/03/05 01:52:18;;;;;;;2.77;1.10;;;6.40;99.90;;;;;;4992320;28;20206;-66
2023/03/05 01:55:02;;;;;;;2.57;1.00;;;6.40;99.90;;;;;;4998116;28;20289;-66
2023/03/05 01:57:33;;;;;;;2.20;1.00;;;6.40;99.90;;;;;;4999571;28;20172;-66
2023/03/05 02:00:11;;;;;;;2.83;0.90;;;6.40;99.90;;;;;;4998906;28;20187;-67
2023/03/05 02:02:37;;;;;;;4.07;1.10;;;6.40;99.90;;;;;;4995558;28;20202;-64
2023/03/05 02:05:09;;;;;;;1.80;0.90;;;6.40;99.90;;;;;;4994234;28;20229;-66
2023/03/05 02:07:36;;;;;;;2.80;0.90;;;6.40;99.90;;;;;;4995156;28;20171;-61
2023/03/05 02:10:32;;;;;;;4.17;1.30;;;6.40;99.90;;;;;;4995884;28;20179;-64
2023/03/05 02:13:06;;;;;;;3.23;1.00;;;6.40;99.90;;;;;;4994073;28;20286;-66
2023/03/05 02:15:33;;;;;;;3.23;1.20;;;6.40;99.90;;;;;;4995251;28;20260;-67
2023/03/05 02:18:00;;;;;;;5.50;1.17;;;6.40;99.90;;;;;;4995438;28;20229;-66
2023/03/05 02:20:29;;;;;;;4.87;1.10;;;6.40;99.90;;;;;;4995445;28;20179;-67
2023/03/05 02:22:57;;;;;;;5.60;1.33;;;6.40;99.90;;;;;;5006673;28;20182;-65
2023/03/05 02:25:28;;;;;;;4.27;1.20;;;6.30;99.90;;;;;;5014975;28;20187;-67
2023/03/05 02:28:03;;;;;;;6.77;1.33;;;6.30;99.90;;;;;;4975601;28;20239;-64
2023/03/05 02:30:31;;;;;;;5.00;1.40;;;6.30;99.90;;;;;;4983951;28;20266;-66
2023/03/05 02:32:57;;;;;;;6.30;1.30;;;6.30;99.90;;;;;;4991807;28;20255;-67
2023/03/05 02:35:23;;;;;;;2.40;1.20;;;6.30;99.90;;;;;;4995120;28;20203;-66
2023/03/05 02:37:51;;;;;;;2.67;1.03;;;6.30;99.90;;;;;;4996601;28;20234;-67
2023/03/05 02:40:17;;;;;;;3.27;1.10;;;6.30;99.90;;;;;;5000512;28;20183;-67
2023/03/05 02:42:42;;;;;;;2.93;1.20;;;6.30;99.90;;;;;;4997891;28;20746;-66
2023/03/05 02:45:12;;;;;;;3.60;1.33;;;6.30;99.90;;;;;;4996809;28;20198;-66
2023/03/05 02:47:37;;;;;;;2.40;1.07;;;6.30;99.90;;;;;;4994554;28;20210;-67
2023/03/05 02:50:09;;;;;;;1.83;1.10;;;6.30;99.90;;;;;;4997896;28;20191;-67
2023/03/05 02:52:34;;;;;;;3.10;0.90;;;6.30;99.90;;;;;;4997955;28;20191;-67
2023/03/05 02:55:00;;;;;;;3.13;1.20;;;6.30;99.90;;;;;;4985641;28;20195;-67
2023/03/05 02:57:26;;;;;;;4.67;1.23;;;6.30;99.90;;;;;;4997130;28;20183;-67
2023/03/05 02:59:53;;;;;;;3.73;1.30;;;6.30;99.90;;;;;;4996022;28;20176;-67
2023/03/05 03:02:20;;;;;;;2.30;1.00;;;6.30;99.90;;;;;;4995436;28;20191;-67
2023/03/05 03:04:48;;;;;;;3.00;0.90;;;6.30;99.90;;;;;;4998231;28;20179;-68
2023/03/05 03:07:15;;;;;;;4.83;1.47;;;6.30;99.90;;;;;;4997968;28;20545;-65
2023/03/05 03:09:44;;;;;;;2.10;0.80;;;6.30;99.90;;;;;;4995458;28;20246;-66
2023/03/05 03:12:10;;;;;;;4.77;1.20;;;6.30;99.90;;;;;;4997953;28;20175;-66
2023/03/05 03:14:41;;;;;;;4.17;1.23;;;6.30;99.90;;;;;;5000096;28;20281;-66
2023/03/05 03:17:15;;;;;;;4.00;1.20;;;6.30;99.90;;;;;;4999027;28;20200;-66
2023/03/05 03:19:44;;;;;;;5.77;1.23;;;6.20;99.90;;;;;;4997674;28;20180;-67
2023/03/05 03:22:11;;;;;;;3.27;1.20;;;6.20;99.90;;;;;;4999975;28;20186;-67
2023/03/05 03:24:45;;;;;;;2.40;1.10;;;6.20;99.90;;;;;;4996226;28;20203;-67
2023/03/05 03:27:12;;;;;;;3.07;1.00;;;6.20;99.90;;;;;;4996579;28;20176;-67
2023/03/05 03:29:38;;;;;;;5.27;1.30;;;6.20;99.90;;;;;;4996623;28;20179;-66
2023/03/05 03:32:04;;;;;;;3.10;0.90;;;6.20;99.90;;;;;;4996138;28;20172;-67
2023/03/05 03:34:30;;;;;;;3.90;1.43;;;6.20;99.90;;;;;;4995655;28;20195;-66
2023/03/05 03:36:55;;;;;;;2.50;1.10;;;6.20;99.90;;;;;;4993100;28;20195;-66
2023/03/05 03:39:21;;;;;;;4.83;1.10;;;6.10;99.90;;;;;;4994868;28;20172;-66
2023/03/05 03:41:49;;;;;;;3.27;1.03;;;6.20;99.90;;;;;;4995057;28;20179;-66
2023/03/05 03:44:19;;;;;;;4.07;1.10;;;6.10;99.90;;;;;;4994254;28;20208;-66
2023/03/05 03:46:49;;;;;;;3.37;1.07;;;6.10;99.90;;;;;;4994925;28;20187;-68
2023/03/05 03:49:20;;;;;;;2.00;0.70;;;6.10;99.90;;;;;;4992480;28;20184;-66
2023/03/05 03:51:48;;;;;;;3.87;0.90;;;6.10;99.90;;;;;;4996485;28;20211;-66
2023/03/05 03:54:15;;;;;;;2.20;0.80;;;6.10;99.90;;;;;;4994381;28;20199;-66
2023/03/05 03:56:43;;;;;;;2.10;0.80;;;6.10;99.90;;;;;;5010093;28;20230;-67
2023/03/05 03:59:09;;;;;;;2.40;0.80;;;6.10;99.90;;;;;;4992349;28;20206;-67
2023/03/05 04:01:35;;;;;;;3.23;0.80;;;6.10;99.90;;;;;;4994462;28;20176;-64
2023/03/05 04:04:07;;;;;;;1.40;0.70;;;6.20;99.90;;;;;;4996701;28;20179;-63
2023/03/05 04:06:33;;;;;;;2.73;1.10;;;6.20;99.90;;;;;;4996049;28;20192;-64
2023/03/05 04:09:04;;;;;;;2.20;0.70;;;6.10;99.90;;;;;;5008192;28;20278;-67
2023/03/05 04:11:32;;;;;;;1.63;0.90;;;6.10;99.90;;;;;;4997821;28;20203;-67
2023/03/05 04:13:58;;;;;;;3.17;0.90;;;6.10;99.90;;;;;;4996906;28;20199;-64
2023/03/05 04:16:23;;;;;;;2.53;0.90;;;6.10;99.90;;;;;;4996352;28;20193;-64
2023/03/05 04:18:49;;;;;;;2.20;0.80;;;6.10;99.90;;;;;;4994877;28;20187;-65
2023/03/05 04:21:15;;;;;;;2.80;0.80;;;6.10;99.90;;;;;;4996922;28;20202;-65
2023/03/05 04:23:40;;;;;;;2.30;0.90;;;6.10;99.90;;;;;;4996956;28;20242;-64
2023/03/05 04:26:08;;;;;;;2.87;0.90;;;6.10;99.90;;;;;;4994241;28;20180;-65
2023/03/05 04:28:37;;;;;;;2.50;0.90;;;6.10;99.90;;;;;;4985081;28;20183;-65
2023/03/05 04:31:03;;;;;;;2.50;1.20;;;6.10;99.90;;;;;;4992738;28;20179;-66
2023/03/05 04:33:29;;;;;;;3.00;0.90;;;6.10;99.90;;;;;;4990787;28;20187;-66
2023/03/05 04:35:55;;;;;;;2.93;1.00;;;6.00;99.90;;;;;;4994495;28;20194;-66
2023/03/05 04:38:20;;;;;;;1.80;0.90;;;6.00;99.90;;;;;;4994942;28;20229;-66
2023/03/05 04:40:46;;;;;;;3.30;1.00;;;6.10;99.90;;;;;;5003188;28;20174;-66
2023/03/05 04:43:15;;;;;;;3.30;1.00;;;6.00;99.90;;;;;;4993193;28;20179;-65
2023/03/05 04:45:43;;;;;;;2.57;1.03;;;6.10;99.90;;;;;;5007843;28;20214;-65
2023/03/05 04:48:10;;;;;;;1.97;1.03;;;6.10;99.90;;;;;;5009987;28;20262;-66
2023/03/05 04:50:35;;;;;;;3.40;0.90;;;6.10;99.90;;;;;;4993372;28;20190;-65
2023/03/05 04:53:04;;;;;;;1.87;0.77;;;6.10;99.90;;;;;;4994746;28;20207;-65
2023/03/05 04:55:32;;;;;;;2.20;1.00;;;6.10;99.90;;;;;;4994975;28;20227;-66
2023/03/05 04:57:58;;;;;;;3.23;1.43;;;6.10;99.90;;;;;;4995266;28;20175;-66
2023/03/05 05:00:24;;;;;;;3.70;1.30;;;6.10;99.90;;;;;;4991547;28;20246;-66
2023/03/05 05:02:54;;;;;;;2.70;1.10;;;6.10;99.90;;;;;;4993833;28;20209;-66
2023/03/05 05:05:27;;;;;;;3.53;1.40;;;6.10;99.90;;;;;;4990078;28;20207;-66
2023/03/05 05:07:56;;;;;;;2.67;1.00;;;6.10;99.90;;;;;;4992365;28;20191;-66
2023/03/05 05:10:25;;;;;;;2.80;1.10;;;6.10;99.90;;;;;;5001395;28;20191;-66
2023/03/05 05:12:51;;;;;;;2.03;0.90;;;6.10;99.90;;;;;;4996469;28;20277;-66
2023/03/05 05:15:17;;;;;;;2.30;0.90;;;6.10;99.90;;;;;;4994672;28;20183;-66
2023/03/05 05:17:45;;;;;;;4.00;1.13;;;6.10;99.90;;;;;;4992508;28;20246;-66
2023/03/05 05:20:13;;;;;;;3.40;0.90;;;6.10;99.90;;;;;;4972759;28;20203;-65
2023/03/05 05:22:38;;;;;;;3.23;1.00;;;6.10;99.90;;;;;;4995291;28;20178;-66
2023/03/05 05:25:07;;;;;;;2.43;1.00;;;6.10;99.90;;;;;;4993829;28;20186;-66
2023/03/05 05:27:32;;;;;;;3.63;1.57;;;6.10;99.90;;;;;;4994291;28;20179;-65
2023/03/05 05:30:00;;;;;;;3.80;0.97;;;6.00;99.90;;;;;;4994336;28;20186;-66
2023/03/05 05:32:26;;;;;;;5.13;1.40;;;6.00;99.90;;;;;;4993979;28;20267;-66
2023/03/05 05:34:59;;;;;;;3.37;1.20;;;6.00;99.90;;;;;;4994472;28;20195;-66
2023/03/05 05:37:26;;;;;;;3.77;0.90;;;6.00;99.90;;;;;;4993474;28;20213;-66
2023/03/05 05:39:54;;;;;;;2.93;1.20;;;6.00;99.90;;;;;;4995049;28;20195;-66
2023/03/05 05:42:22;;;;;;;3.57;1.10;;;6.00;99.90;;;;;;4993809;28;20190;-66
2023/03/05 05:44:48;;;;;;;2.33;1.10;;;6.00;99.90;;;;;;4997526;28;20243;-66
2023/03/05 05:47:16;;;;;;;1.80;1.00;;;5.90;99.90;;;;;;4994885;28;20230;-66
2023/03/05 05:49:41;;;;;;;3.00;1.20;;;5.90;99.90;;;;;;5009681;28;20242;-66
2023/03/05 05:52:07;;;;;;;2.53;0.90;;;6.00;99.90;;;;;;4991646;28;20199;-66
2023/03/05 05:54:33;;;;;;;3.87;1.10;;;5.90;99.90;;;;;;4993560;28;20282;-66
2023/03/05 05:57:01;;;;;;;2.43;1.20;;;5.90;99.90;;;;;;4990251;28;20180;-66
2023/03/05 05:59:27;;;;;;;1.87;0.83;;;5.90;99.90;;;;;;4993908;28;20183;-66
2023/03/05 06:01:53;;;;;;;3.03;1.03;;;5.90;99.90;;;;;;4992703;28;20179;-66
2023/03/05 06:04:18;;;;;;;2.43;1.17;;;5.90;99.90;;;;;;4994760;28;20183;-66
2023/03/05 06:06:44;;;;;;;2.13;1.00;;;5.90;99.90;;;;;;4994248;28;20266;-66
2023/03/05 06:09:09;;;;;;;2.70;0.90;;;5.90;99.90;;;;;;4994780;28;20175;-67
2023/03/05 06:11:40;;;;;;;3.03;1.10;;;5.90;99.90;;;;;;5003441;28;20196;-67
2023/03/05 06:14:07;;;;;;;2.33;0.77;;;5.80;99.90;;;;;;4994100;28;20266;-65
2023/03/05 06:16:36;;;;;;;2.97;1.07;;;5.80;99.90;;;;;;4991142;28;20175;-66
2023/03/05 06:19:05;;;;;;;2.23;0.90;;;5.80;99.90;;;;;;4995147;28;20195;-66
2023/03/05 06:21:35;;;;;;;3.10;1.10;;;5.80;99.90;;;;;;4994877;28;20195;-65
2023/03/05 06:24:01;;;;;;;2.90;1.03;;;5.80;99.90;;;;;;4994686;28;20170;-66
2023/03/05 06:26:27;;;;;;;2.17;0.80;;;5.80;99.90;;;;;;4994585;28;20199;-66
2023/03/05 06:28:53;;;;;;;2.27;1.13;;;5.80;99.90;;;;;;4994667;28;20187;-65
2023/03/05 06:31:21;;;;;;;4.40;0.87;;;5.80;99.90;;;;;;4994916;28;20280;-66
2023/03/05 06:33:48;;;;;;;3.63;1.17;;;5.80;99.90;;;;;;4994519;28;20226;-66
2023/03/05 06:36:15;;;;;;;3.20;1.20;;;5.80;99.90;;;;;;4992400;28;20179;-65
2023/03/05 06:38:44;;;;;;;2.47;1.20;;;5.80;99.90;;;;;;4992533;28;20219;-65
2023/03/05 06:41:13;;;;;;;3.37;1.20;;;5.80;99.90;;;;;;4990704;28;20191;-66
2023/03/05 06:43:41;;;;;;;2.90;1.10;;;5.80;99.90;;;;;;4995322;28;20202;-66
2023/03/05 06:46:09;;;;;;;3.07;1.10;;;5.80;99.90;;;;;;4992239;28;20199;-66
2023/03/05 06:48:35;;;;;;;2.13;0.93;;;5.80;99.90;;;;;;4987765;28;20183;-66
2023/03/05 06:51:01;;;;;;;3.60;1.00;;;5.70;99.90;;;;;;4993184;28;20207;-66
2023/03/05 06:53:27;;;;;;;2.80;1.30;;;5.70;99.90;;;;;;4995196;28;20269;-67
2023/03/05 06:55:53;;;;;;;4.07;1.00;;;5.80;99.90;;;;;;4991814;28;20184;-66
2023/03/05 06:58:19;;;;;;;2.30;1.07;;;5.70;99.90;;;;;;4992063;28;20185;-66
2023/03/05 07:00:48;;;;;;;1.43;0.73;;;5.70;99.90;;;;;;4993517;28;20209;-66
2023/03/05 07:03:13;;;;;;;2.67;1.20;;;5.70;99.90;;;;;;4993364;28;20193;-66
2023/03/05 07:05:42;;;;;;;2.80;0.90;;;5.70;99.90;;;;;;4996016;28;20183;-66
2023/03/05 07:08:11;;;;;;;3.03;1.10;;;5.80;99.90;;;;;;4984701;28;20187;-66
2023/03/05 07:10:39;;;;;;;1.73;0.70;;;5.70;99.90;;;;;;4989223;28;20183;-66
2023/03/05 07:13:07;;;;;;;2.00;1.10;;;5.80;99.90;;;;;;4991133;28;20221;-66
2023/03/05 07:15:42;;;;;;;2.57;0.90;;;5.80;99.90;;;;;;4994570;28;20200;-66
2023/03/05 07:18:07;;;;;;;2.43;1.00;;;5.80;99.90;;;;;;4998362;28;20162;-65
2023/03/05 07:20:38;;;;;;;2.93;0.90;;;5.80;99.90;;;;;;4997597;28;20234;-68
2023/03/05 07:23:04;;;;;;;3.87;1.27;;;5.80;99.90;;;;;;4995047;28;20179;-66
2023/03/05 07:25:30;;;;;;;2.60;1.13;;;5.80;99.90;;;;;;5009430;28;20191;-67
2023/03/05 07:27:59;;;;;;;3.70;1.27;;;5.80;99.90;;;;;;4994209;28;20207;-65
2023/03/05 07:30:27;;;;;;;3.67;1.57;;;5.80;99.90;;;;;;4995491;28;20245;-65
2023/03/05 07:32:59;;;;;;;4.10;1.10;;;5.80;99.90;;;;;;4986354;28;20279;-66
2023/03/05 07:35:25;;;;;;;2.57;1.17;;;5.80;99.90;;;;;;4997101;28;20176;-67
2023/03/05 07:37:51;;;;;;;2.97;1.40;;;5.90;99.90;;;;;;4997043;28;20176;-67
2023/03/05 07:40:20;;;;;;;3.93;1.33;;;5.90;99.90;;;;;;4999895;28;20318;-67
2023/03/05 07:42:48;;;;;;;4.73;1.40;;;5.90;99.90;;;;;;4997858;28;20179;-66
2023/03/05 07:45:14;;;;;;;4.23;1.10;;;5.90;99.90;;;;;;4995993;28;20183;-66
2023/03/05 07:47:42;;;;;;;3.13;1.20;;;6.00;99.90;;;;;;4993305;28;20203;-66
2023/03/05 07:50:09;;;;;;;2.27;1.40;;;6.00;99.90;;;;;;4988222;28;20183;-66
2023/03/05 07:52:34;;;;;;;4.10;1.60;;;6.00;99.90;;;;;;4996979;28;20201;-66
2023/03/05 07:55:00;;;;;;;5.47;1.70;;;6.00;99.90;;;;;;5001178;28;20179;-68
2023/03/05 07:57:26;;;;;;;3.73;1.67;;;6.00;99.90;;;;;;4996586;28;20190;-67
2023/03/05 07:59:54;;;;;;;2.67;1.30;;;6.10;99.90;;;;;;5003597;28;20181;-67
2023/03/05 08:02:20;;;;;;;4.00;1.57;;;6.10;99.90;;;;;;4996833;28;20176;-67
2023/03/05 08:04:48;;;;;;;3.93;1.53;;;6.10;99.90;;;;;;4995493;28;20198;-69
2023/03/05 08:07:16;;;;;;;6.87;2.10;;;6.20;99.90;;;;;;4995850;28;20250;-67
2023/03/05 08:09:45;;;;;;;3.40;1.60;;;6.20;99.90;;;;;;4996921;28;20207;-67
2023/03/05 08:12:13;;;;;;;3.37;1.47;;;6.20;99.90;;;;;;4995389;28;20175;-66
2023/03/05 08:14:38;;;;;;;4.17;1.73;;;6.20;99.90;;;;;;4995886;28;20250;-66
2023/03/05 08:17:07;;;;;;;5.20;1.90;;;6.30;99.90;;;;;;4997190;28;20203;-66
2023/03/05 08:19:36;;;;;;;4.83;1.70;;;6.30;99.90;;;;;;4985918;28;20298;-66
2023/03/05 08:22:02;;;;;;;4.33;1.73;;;6.40;99.90;;;;;;4996920;28;20180;-67
2023/03/05 08:24:28;;;;;;;3.00;1.60;;;6.40;99.90;;;;;;4993719;28;20176;-66
2023/03/05 08:26:58;;;;;;;4.47;1.90;;;6.40;99.90;;;;;;4996831;28;20266;-66
2023/03/05 08:29:26;;;;;;;4.93;1.80;;;6.50;99.90;;;;;;4996569;28;20187;-67
2023/03/05 08:31:52;;;;;;;3.90;1.60;;;6.50;99.90;;;;;;5003143;28;20179;-66
2023/03/05 08:34:21;;;;;;;3.53;1.30;;;6.60;99.90;;;;;;5000114;28;20209;-67
2023/03/05 08:36:47;;;;;;;3.77;1.50;;;6.60;99.90;;;;;;5007658;28;20171;-65
2023/03/05 08:39:13;;;;;;;3.30;1.60;;;6.60;99.90;;;;;;4983732;28;20215;-66
2023/03/05 08:41:39;;;;;;;2.43;1.63;;;6.60;99.90;;;;;;4992563;28;20212;-66
2023/03/05 08:44:04;;;;;;;4.67;1.77;;;6.60;99.90;;;;;;4993795;28;20168;-66
2023/03/05 08:46:33;;;;;;;2.83;1.60;;;6.60;99.90;;;;;;4985588;28;20196;-67
2023/03/05 08:48:59;;;;;;;3.77;1.90;;;6.60;99.90;;;;;;4992559;28;20190;-66
2023/03/05 08:51:25;;;;;;;4.00;1.57;;;6.70;99.90;;;;;;5001860;28;20187;-67
2023/03/05 08:53:54;;;;;;;3.20;1.83;;;6.70;99.90;;;;;;4993764;28;20267;-68
2023/03/05 08:56:20;;;;;;;3.33;1.53;;;6.60;99.90;;;;;;4996064;28;20180;-66
2023/03/05 08:58:53;;;;;;;3.80;1.80;;;6.60;99.90;;;;;;4997494;28;20196;-65
2023/03/05 09:01:19;;;;;;;4.03;1.90;;;6.60;99.90;;;;;;4995848;28;20179;-66
2023/03/05 09:03:51;;;;;;;4.20;2.00;;;6.60;99.90;;;;;;4992976;28;20276;-69
2023/03/05 09:06:22;;;;;;;4.10;1.97;;;6.60;99.90;;;;;;4989398;28;20363;-67
2023/03/05 09:08:47;;;;;;;5.50;1.90;;;6.60;99.90;;;;;;4993073;28;20187;-66
2023/03/05 09:11:13;;;;;;;4.93;2.10;;;6.70;99.90;;;;;;4999611;28;20226;-67
2023/03/05 09:13:39;;;;;;;4.20;1.90;;;6.60;99.90;;;;;;4995166;28;20209;-67
2023/03/05 09:16:08;;;;;;;4.93;2.00;;;6.70;99.90;;;;;;4990111;28;20290;-68
2023/03/05 09:18:35;;;;;;;3.80;2.00;;;6.70;99.90;;;;;;4991021;28;20219;-68
2023/03/05 09:21:15;;;;;;;6.57;2.03;;;6.70;99.90;;;;;;5004771;28;20182;-67
2023/03/05 09:23:45;;;;;;;5.83;2.10;;;6.80;99.90;;;;;;4992371;28;20175;-68
2023/03/05 09:26:17;;;;;;;5.83;2.27;;;6.80;99.90;;;;;;4986728;28;20206;-67
2023/03/05 09:28:43;;;;;;;4.00;2.07;;;6.80;99.90;;;;;;4993896;28;20179;-65
2023/03/05 09:31:10;;;;;;;3.43;2.03;;;6.90;99.90;;;;;;4984868;28;20199;-67
2023/03/05 09:33:37;;;;;;;4.37;2.10;;;6.90;99.90;;;;;;4987173;28;20195;-67
2023/03/05 09:36:15;;;;;;;4.77;2.60;;;7.00;99.90;;;;;;4993426;28;20329;-67
2023/03/05 09:38:41;;;;;;;7.10;2.80;;;7.00;99.90;;;;;;4993374;28;20195;-65
2023/03/05 09:41:16;;;;;;;3.00;2.07;;;7.10;99.90;;;;;;4992070;28;20186;-65
2023/03/05 09:44:01;;;;;;;4.37;2.17;;;7.10;99.90;;;;;;4994114;28;20205;-67
2023/03/05 09:47:05;;;;;;;3.03;1.90;;;7.10;99.90;;;;;;4980839;28;20286;-67
2023/03/05 09:49:53;;;;;;;4.83;2.70;;;7.20;99.90;;;;;;4991285;28;20175;-67
2023/03/05 09:52:30;;;;;;;4.90;2.37;;;7.20;99.90;;;;;;4992919;28;20211;-67
2023/03/05 09:54:57;;;;;;;4.57;1.93;;;7.20;99.90;;;;;;4994839;28;20282;-67
2023/03/05 09:57:31;;;;;;;4.20;2.07;;;7.20;99.90;;;;;;4994827;28;20231;-67
2023/03/05 10:00:12;;;;;;;4.47;2.30;;;7.20;99.90;;;;;;4996935;28;20182;-68
2023/03/05 10:02:49;;;;;;;2.93;2.00;;;7.20;99.90;;;;;;4995554;28;20227;-68
2023/03/05 10:05:34;;;;;;;3.80;2.20;;;7.20;99.90;;;;;;5009002;28;20190;-68
2023/03/05 10:08:04;;;;;;;4.03;2.27;;;7.20;99.90;;;;;;4991218;28;20191;-67
2023/03/05 10:10:46;;;;;;;5.13;2.57;;;7.30;99.90;;;;;;4999815;28;20325;-65
2023/03/05 10:13:24;;;;;;;4.17;2.30;;;7.30;99.90;;;;;;4998764;28;20194;-67
2023/03/05 10:16:34;;;;;;;3.73;2.53;;;7.40;99.90;;;;;;5006906;28;20195;-67
2023/03/05 10:19:17;;;;;;;5.77;2.63;;;7.60;99.90;;;;;;5011994;28;20167;-67
2023/03/05 10:21:54;;;;;;;5.73;2.90;;;7.90;99.90;;;;;;5011939;28;20186;-68
2023/03/05 10:24:58;;;;;;;3.60;2.30;;;8.10;99.90;;;;;;4995530;28;20186;-67
2023/03/05 10:28:04;;;;;;;3.63;2.03;;;8.30;99.90;;;;;;4995057;28;20205;-68
2023/03/05 10:31:05;;;;;;;4.53;2.50;;;8.40;99.90;;;;;;4994473;28;20207;-67
2023/03/05 10:33:34;;;;;;;4.73;2.33;;;8.40;99.90;;;;;;4991377;28;20207;-66
2023/03/05 10:36:26;;;;;;;3.80;2.03;;;8.30;99.90;;;;;;4993045;28;20218;-65
2023/03/05 10:39:07;;;;;;;3.97;2.03;;;8.20;99.90;;;;;;4993776;28;20226;-66
2023/03/05 10:41:47;;;;;;;4.80;1.97;;;8.10;99.90;;;;;;4986516;28;20206;-65
2023/03/05 10:44:24;;;;;;;3.87;1.60;;;8.00;99.90;;;;;;4999347;28;20247;-66
2023/03/05 10:46:50;;;;;;;3.03;1.80;;;8.00;99.90;;;;;;4993695;28;20210;-67
2023/03/05 10:49:21;;;;;;;3.67;1.57;;;7.90;99.90;;;;;;4990398;28;20203;-68
2023/03/05 10:51:54;;;;;;;2.27;1.30;;;7.80;99.90;;;;;;4991666;28;20274;-69
2023/03/05 10:54:32;;;;;;;4.07;1.60;;;7.80;99.90;;;;;;4993742;28;20222;-66
2023/03/05 10:57:19;;;;;;;2.60;1.50;;;7.80;99.90;;;;;;5006356;28;20167;-65
2023/03/05 10:59:49;;;;;;;2.73;1.60;;;7.70;99.90;;;;;;4996343;28;20556;-66
2023/03/05 11:02:16;;;;;;;3.03;1.60;;;7.70;99.90;;;;;;4987387;28;20196;-67
2023/03/05 11:04:42;;;;;;;4.23;1.70;;;7.70;99.90;;;;;;4995906;28;20202;-68
2023/03/05 11:07:32;;;;;;;3.43;1.77;;;7.70;99.90;;;;;;4997256;28;20190;-67
2023/03/05 11:10:02;;;;;;;4.30;1.80;;;7.70;99.90;;;;;;4988114;28;20188;-65
2023/03/05 11:12:32;;;;;;;4.40;1.80;;;7.60;99.90;;;;;;5011917;28;20172;-67
2023/03/05 11:15:18;;;;;;;5.23;1.70;;;7.70;99.90;;;;;;4997427;28;20203;-66
2023/03/05 11:18:02;;;;;;;2.67;1.87;;;7.60;99.90;;;;;;4998041;28;20278;-65
2023/03/05 11:20:31;;;;;;;3.97;2.03;;;7.80;99.90;;;;;;4994693;28;20230;-65
2023/03/05 11:23:12;;;;;;;2.33;2.00;;;7.70;99.90;;;;;;4994980;28;20391;-66
2023/03/05 11:25:58;;;;;;;2.77;1.70;;;7.60;99.90;;;;;;4985761;28;20180;-66
2023/03/05 11:28:29;;;;;;;4.87;1.93;;;7.60;99.90;;;;;;4996817;28;20313;-66
2023/03/05 11:30:58;;;;;;;3.80;2.63;;;7.70;99.90;;;;;;4997087;28;20546;-67
2023/03/05 11:33:24;;;;;;;2.60;2.33;;;7.70;99.90;;;;;;5011889;28;20202;-66
2023/03/05 11:35:54;;;;;;;3.93;2.63;;;7.60;99.90;;;;;;4991374;28;20205;-66
2023/03/05 11:38:26;;;;;;;4.53;2.47;;;7.60;99.90;;;;;;4995143;28;20171;-67
2023/03/05 11:40:54;;;;;;;3.97;2.40;;;7.60;99.90;;;;;;4989471;28;20262;-72
2023/03/05 11:43:23;;;;;;;4.63;2.53;;;7.60;99.90;;;;;;4994825;28;20218;-73
2023/03/05 11:45:52;;;;;;;4.83;2.50;;;7.50;99.90;;;;;;4991345;28;20193;-73
2023/03/05 11:48:27;;;;;;;4.30;2.57;;;7.50;99.90;;;;;;4994196;28;20187;-73
2023/03/05 11:51:00;;;;;;;4.20;3.00;;;7.50;99.90;;;;;;4981824;28;20202;-73
2023/03/05 11:53:29;;;;;;;3.87;2.90;;;7.50;99.90;;;;;;4995215;28;20441;-68
2023/03/05 11:56:18;;;;;;;4.27;2.83;;;7.30;99.90;;;;;;4995869;28;20191;-72
2023/03/05 11:58:50;;;;;;;4.23;2.97;;;7.20;99.90;;;;;;4990284;28;20171;-72
2023/03/05 12:01:22;;;;;;;4.47;2.73;;;7.20;99.90;;;;;;4985131;28;20206;-73
2023/03/05 12:03:50;;;;;;;4.20;3.00;;;7.00;99.90;;;;;;4997615;28;20374;-75
2023/03/05 12:06:44;;;;;;;3.60;3.07;;;6.90;99.90;;;;;;4997054;28;20186;-75
2023/03/05 12:09:22;;;;;;;3.83;3.10;;;6.90;99.90;;;;;;5001462;28;20207;-74
2023/03/05 12:11:52;;;;;;;3.77;3.20;;;6.90;99.90;;;;;;4999626;28;20179;-75
2023/03/05 12:14:49;;;;;;;4.13;3.53;;;7.00;99.90;;;;;;4997107;28;20207;-76
2023/03/05 12:17:21;;;;;;;4.37;3.10;;;7.00;99.90;;;;;;4993711;28;20168;-77
2023/03/05 12:20:05;;;;;;;5.00;3.90;;;7.10;99.90;;;;;;4996851;28;20198;-76
2023/03/05 12:22:38;;;;;;;3.90;3.13;;;7.20;99.90;;;;;;4996272;28;20180;-76
2023/03/05 12:25:35;;;;;;;6.33;3.77;;;7.30;99.90;;;;;;4995912;28;20179;-74
2023/03/05 12:28:03;;;;;;;5.80;4.00;;;7.40;99.90;;;;;;5000837;28;20214;-75
2023/03/05 12:30:35;;;;;;;4.30;3.53;;;7.40;99.90;;;;;;4995393;28;20179;-75
2023/03/05 12:33:03;;;;;;;4.33;3.60;;;7.50;99.90;;;;;;5013091;28;20324;-74
2023/03/05 12:35:39;;;;;;;4.83;3.83;;;7.50;99.90;;;;;;4989261;28;20180;-76
2023/03/05 12:38:04;;;;;;;7.33;3.97;;;7.60;99.90;;;;;;4995334;28;20179;-77
2023/03/05 12:40:38;;;;;;;5.13;4.07;;;7.50;99.90;;;;;;4994971;28;20214;-75
2023/03/05 12:43:04;;;;;;;4.77;3.70;;;7.50;99.90;;;;;;4992720;28;20179;-74
2023/03/05 12:45:38;;;;;;;4.00;3.10;;;7.50;99.90;;;;;;4995601;28;20217;-74
2023/03/05 12:48:09;;;;;;;5.30;3.50;;;7.50;99.90;;;;;;4986202;28;20218;-74
2023/03/05 12:50:41;;;;;;;4.03;3.43;;;7.40;99.90;;;;;;4996288;28;20171;-77
2023/03/05 12:53:19;;;;;;;4.87;4.17;;;7.50;99.90;;;;;;5006273;28;20219;-75
2023/03/05 12:55:47;;;;;;;5.57;3.90;;;7.60;99.90;;;;;;4982590;28;20231;-77
2023/03/05 12:58:38;;;;;;;4.73;4.10;;;7.60;99.90;;;;;;4995709;28;20313;-76
2023/03/05 13:01:09;;;;;;;7.87;4.10;;;7.60;99.90;;;;;;4994419;28;20180;-73
2023/03/05 13:03:45;;;;;;;5.10;3.80;;;7.60;99.90;;;;;;5012013;28;20238;-71
2023/03/05 13:06:40;;;;;;;4.50;4.10;;;7.60;99.90;;;;;;5017857;28;20248;-72
2023/03/05 13:09:26;;;;;;;4.10;3.43;;;7.60;99.90;;;;;;4972582;28;20187;-74
2023/03/05 13:11:56;;;;;;;5.47;3.60;;;7.60;99.90;;;;;;4990040;28;20175;-73
2023/03/05 13:14:33;;;;;;;4.87;3.70;;;7.70;99.90;;;;;;5004909;28;20208;-70